createdAt,value
2022-11-20T00:03:06.867Z,1.00
2022-11-20T00:05:33.806Z,1.10
2022-11-20T00:10:27.868Z,1.10
2022-11-20T00:15:21.336Z,1.00
2022-11-20T00:17:47.849Z,1.10
2022-11-20T00:25:08.902Z,1.20
2022-11-20T00:27:36.377Z,1.10
2022-11-20T00:32:30.775Z,1.10
2022-11-20T00:44:45.784Z,1.00
2022-11-20T00:47:12.321Z,1.10
2022-11-20T00:59:27.209Z,1.00
2022-11-20T01:01:54.867Z,0.90
2022-11-20T01:09:15.664Z,0.90
2022-11-20T01:11:43.595Z,0.90
2022-11-20T01:14:12.850Z,1.10
2022-11-20T01:16:41.290Z,0.90
2022-11-20T01:19:15.972Z,0.90
2022-11-20T01:21:45.658Z,0.90
2022-11-20T01:24:14.732Z,0.90
2022-11-20T01:26:43.226Z,0.90
2022-11-20T01:29:14.069Z,0.90
2022-11-20T01:34:11.101Z,1.00
2022-11-20T01:36:38.719Z,0.90
2022-11-20T01:39:07.881Z,1.00
2022-11-20T01:41:53.491Z,1.00
2022-11-20T01:44:22.861Z,1.00
2022-11-20T01:46:57.545Z,1.10
2022-11-20T01:49:28.784Z,1.10
2022-11-20T01:52:00.436Z,1.30
2022-11-20T01:54:36.745Z,2.40
2022-11-20T01:57:07.085Z,1.00
2022-11-20T01:59:34.642Z,1.00
2022-11-20T02:04:28.707Z,1.00
2022-11-20T02:07:00.375Z,1.00
2022-11-20T02:09:28.223Z,1.00
2022-11-20T02:11:55.570Z,1.00
2022-11-20T02:14:23.155Z,1.00
2022-11-20T02:16:50.987Z,0.70
2022-11-20T02:19:23.449Z,0.90
2022-11-20T02:22:00.807Z,0.90
2022-11-20T02:24:28.019Z,0.90
2022-11-20T02:26:58.498Z,0.90
2022-11-20T02:29:28.387Z,0.90
2022-11-20T02:31:56.674Z,0.40
2022-11-20T02:36:51.820Z,0.80
2022-11-20T02:39:20.229Z,0.80
2022-11-20T02:41:47.776Z,0.80
2022-11-20T02:46:41.295Z,0.90
2022-11-20T02:54:01.697Z,0.70
2022-11-20T02:58:55.977Z,0.70
2022-11-20T03:03:49.810Z,0.70
2022-11-20T03:06:16.652Z,1.10
2022-11-20T03:16:13.383Z,0.70
2022-11-20T03:21:07.998Z,0.70
2022-11-20T03:23:35.838Z,0.60
2022-11-20T03:26:13.420Z,0.50
2022-11-20T03:31:09.314Z,0.50
2022-11-20T03:33:37.473Z,0.50
2022-11-20T03:36:05.532Z,0.00
2022-11-20T03:41:01.269Z,0.50
2022-11-20T03:50:49.153Z,0.50
2022-11-20T04:07:58.540Z,0.70
2022-11-20T04:17:45.817Z,0.50
2022-11-20T04:20:12.529Z,0.60
2022-11-20T04:25:07.401Z,0.50
2022-11-20T04:42:31.089Z,0.30
2022-11-20T04:44:58.371Z,0.30
2022-11-20T04:47:24.970Z,0.50
2022-11-20T04:54:45.436Z,0.20
2022-11-20T04:57:14.925Z,0.20
2022-11-20T04:59:42.184Z,0.20
2022-11-20T05:02:09.173Z,0.10
2022-11-20T05:04:35.734Z,0.10
2022-11-20T05:07:02.415Z,0.30
2022-11-20T05:11:55.984Z,0.00
2022-11-20T05:14:22.547Z,0.20
2022-11-20T05:16:49.935Z,0.10
2022-11-20T05:19:16.488Z,0.20
2022-11-20T05:24:10.161Z,0.10
2022-11-20T05:31:30.770Z,0.10
2022-11-20T05:33:58.200Z,0.20
2022-11-20T05:36:25.077Z,0.30
2022-11-20T05:43:50.277Z,0.40
2022-11-20T05:46:22.258Z,0.30
2022-11-20T05:51:20.558Z,0.20
2022-11-20T05:53:48.755Z,-0.10
2022-11-20T05:56:18.253Z,0.30
2022-11-20T05:58:46.172Z,0.30
2022-11-20T06:01:15.389Z,0.30
2022-11-20T06:03:43.946Z,0.50
2022-11-20T06:08:38.276Z,0.30
2022-11-20T06:11:05.755Z,0.40
2022-11-20T06:13:32.728Z,0.40
2022-11-20T06:18:28.671Z,3.80
2022-11-20T06:21:01.768Z,0.40
2022-11-20T06:23:30.195Z,0.30
2022-11-20T06:25:57.521Z,0.40
2022-11-20T06:28:24.095Z,0.60
2022-11-20T06:33:17.720Z,0.70
2022-11-20T06:40:41.170Z,0.40
2022-11-20T06:43:08.532Z,0.40
2022-11-20T07:00:23.279Z,0.40
2022-11-20T07:05:16.953Z,0.40
2022-11-20T07:07:43.723Z,0.60
2022-11-20T07:10:11.097Z,0.50
2022-11-20T07:12:37.663Z,0.70
2022-11-20T07:15:05.178Z,0.70
2022-11-20T07:17:32.414Z,0.70
2022-11-20T07:19:59.021Z,0.60
2022-11-20T07:27:19.481Z,0.70
2022-11-20T07:37:10.303Z,0.60
2022-11-20T07:42:04.209Z,0.60
2022-11-20T07:44:30.789Z,0.60
2022-11-20T07:51:53.924Z,0.60
2022-11-20T08:01:42.816Z,0.80
2022-11-20T08:09:04.512Z,0.80
2022-11-20T08:11:49.267Z,0.90
2022-11-20T08:14:16.100Z,0.90
2022-11-20T08:16:44.463Z,0.90
2022-11-20T08:21:38.582Z,0.40
2022-11-20T08:24:07.279Z,1.10
2022-11-20T08:31:28.647Z,1.10
2022-11-20T08:33:55.485Z,1.70
2022-11-20T08:36:23.365Z,1.30
2022-11-20T08:38:50.491Z,1.20
2022-11-20T08:41:27.408Z,1.30
2022-11-20T08:43:56.357Z,1.20
2022-11-20T08:46:23.985Z,1.20
2022-11-20T08:51:18.280Z,1.40
2022-11-20T08:56:11.818Z,1.40
2022-11-20T08:59:09.965Z,1.20
2022-11-20T09:06:20.574Z,1.30
2022-11-20T09:13:41.817Z,1.40
2022-11-20T09:16:09.687Z,1.40
2022-11-20T09:18:37.981Z,1.50
2022-11-20T09:21:07.029Z,1.50
2022-11-20T09:23:35.919Z,1.50
2022-11-20T09:26:03.732Z,1.60
2022-11-20T09:28:31.181Z,1.70
2022-11-20T09:30:58.584Z,1.60
2022-11-20T09:40:51.098Z,1.60
2022-11-20T09:43:23.580Z,1.40
2022-11-20T09:46:03.826Z,1.60
2022-11-20T09:48:41.573Z,1.70
2022-11-20T09:51:22.379Z,1.70
2022-11-20T09:54:01.105Z,1.70
2022-11-20T09:56:29.692Z,1.70
2022-11-20T09:59:00.474Z,1.80
2022-11-20T10:01:33.067Z,1.70
2022-11-20T10:04:03.464Z,1.80
2022-11-20T10:06:32.015Z,1.80
2022-11-20T10:09:07.566Z,1.90
2022-11-20T10:11:47.178Z,4.90
2022-11-20T10:14:24.845Z,1.90
2022-11-20T10:17:02.580Z,2.10
2022-11-20T10:19:47.965Z,2.10
2022-11-20T10:22:25.166Z,1.70
2022-11-20T10:24:57.230Z,2.70
2022-11-20T10:27:48.551Z,2.20
2022-11-20T10:30:17.539Z,2.20
2022-11-20T10:32:49.483Z,2.30
2022-11-20T10:35:21.773Z,2.20
2022-11-20T10:37:57.580Z,2.10
2022-11-20T10:40:32.067Z,2.10
2022-11-20T10:43:02.197Z,1.90
2022-11-20T10:45:38.936Z,1.90
2022-11-20T10:48:17.187Z,2.00
2022-11-20T10:50:55.545Z,2.00
2022-11-20T10:53:41.528Z,2.30
2022-11-20T10:56:15.351Z,2.00
2022-11-20T10:58:50.304Z,2.00
2022-11-20T11:01:18.914Z,2.30
2022-11-20T11:03:47.095Z,2.50
2022-11-20T11:06:20.861Z,2.70
2022-11-20T11:08:50.293Z,2.70
2022-11-20T11:11:22.710Z,2.90
2022-11-20T11:16:24.688Z,4.40
2022-11-20T11:18:52.302Z,5.00
2022-11-20T11:21:25.145Z,4.70
2022-11-20T11:24:19.747Z,4.50
2022-11-20T11:26:55.653Z,4.70
2022-11-20T11:31:49.669Z,5.20
2022-11-20T11:34:18.231Z,4.90
2022-11-20T11:36:58.795Z,4.50
2022-11-20T11:39:27.955Z,4.30
2022-11-20T11:44:43.110Z,4.10
2022-11-20T11:47:18.674Z,4.00
2022-11-20T11:49:46.046Z,3.90
2022-11-20T11:52:16.654Z,3.60
2022-11-20T11:54:48.084Z,3.40
2022-11-20T11:57:23.880Z,3.40
2022-11-20T12:00:01.415Z,3.30
2022-11-20T12:02:36.514Z,3.20
2022-11-20T12:05:13.929Z,3.00
2022-11-20T12:07:47.594Z,3.00
2022-11-20T12:10:21.062Z,2.90
2022-11-20T12:12:53.283Z,2.90
2022-11-20T12:15:29.114Z,2.80
2022-11-20T12:20:26.860Z,2.80
2022-11-20T12:23:02.668Z,2.80
2022-11-20T12:25:37.467Z,2.80
2022-11-20T12:28:24.496Z,2.70
2022-11-20T12:31:05.987Z,6.10
2022-11-20T12:33:49.588Z,2.70
2022-11-20T12:36:28.593Z,2.80
2022-11-20T12:39:06.043Z,3.40
2022-11-20T12:42:13.923Z,4.60
2022-11-20T12:45:11.319Z,2.90
2022-11-20T12:47:52.597Z,2.80
2022-11-20T12:50:30.597Z,1.90
2022-11-20T12:53:05.239Z,2.80
2022-11-20T12:55:40.108Z,3.00
2022-11-20T12:58:18.314Z,2.50
2022-11-20T13:00:57.025Z,2.70
2022-11-20T13:03:38.566Z,2.60
2022-11-20T13:06:14.504Z,2.60
2022-11-20T13:08:44.308Z,2.40
2022-11-20T13:11:19.558Z,2.50
2022-11-20T13:14:08.578Z,2.20
2022-11-20T13:16:41.047Z,2.40
2022-11-20T13:19:12.392Z,2.10
2022-11-20T13:21:41.178Z,2.00
2022-11-20T13:24:23.537Z,2.10
2022-11-20T13:27:05.479Z,1.90
2022-11-20T13:32:08.173Z,2.40
2022-11-20T13:34:36.719Z,2.40
2022-11-20T13:37:04.223Z,2.40
2022-11-20T13:39:34.138Z,2.40
2022-11-20T13:42:02.169Z,2.40
2022-11-20T13:44:34.881Z,2.30
2022-11-20T13:49:32.871Z,2.30
2022-11-20T13:52:22.640Z,2.40
2022-11-20T13:55:03.093Z,2.50
2022-11-20T13:57:46.738Z,2.50
2022-11-20T14:00:15.862Z,2.50
2022-11-20T14:02:43.544Z,2.50
2022-11-20T14:05:20.283Z,2.50
2022-11-20T14:07:48.245Z,2.40
2022-11-20T14:10:24.859Z,2.40
2022-11-20T14:12:55.657Z,2.30
2022-11-20T14:15:29.594Z,2.20
2022-11-20T14:20:26.627Z,2.10
2022-11-20T14:22:54.308Z,2.10
2022-11-20T14:25:23.604Z,2.20
2022-11-20T14:27:54.185Z,2.10
2022-11-20T14:30:23.317Z,2.20
2022-11-20T14:32:51.516Z,2.20
2022-11-20T14:35:24.889Z,2.20
2022-11-20T14:37:52.545Z,2.10
2022-11-20T14:40:35.361Z,2.30
2022-11-20T14:58:25.095Z,1.90
2022-11-20T15:03:40.912Z,1.90
2022-11-20T15:11:57.691Z,1.80
2022-11-20T15:17:14.264Z,1.70
2022-11-20T15:22:16.527Z,1.70
2022-11-20T16:03:26.842Z,1.60
2022-11-20T16:24:17.800Z,1.10
2022-11-20T17:06:22.112Z,0.20
2022-11-20T17:11:22.684Z,0.20
2022-11-20T17:13:49.674Z,0.10
2022-11-20T17:16:20.959Z,1.10
2022-11-20T17:18:49.308Z,0.40
2022-11-20T17:21:16.801Z,0.40
2022-11-20T17:23:44.989Z,0.40
2022-11-20T17:26:13.641Z,0.40
2022-11-20T17:31:09.503Z,0.50
2022-11-20T17:33:37.999Z,0.50
2022-11-20T17:36:07.087Z,0.60
2022-11-20T17:41:05.386Z,0.60
2022-11-20T17:46:04.900Z,0.60
2022-11-20T17:50:59.939Z,0.70
2022-11-20T17:53:27.373Z,0.60
2022-11-20T17:56:18.291Z,0.70
2022-11-20T18:03:39.161Z,1.00
2022-11-20T18:06:10.507Z,0.80
2022-11-20T18:08:37.887Z,0.90
2022-11-20T18:11:12.326Z,1.00
2022-11-20T18:16:24.646Z,0.90
2022-11-20T18:18:54.917Z,0.90
2022-11-20T18:23:49.593Z,0.90
2022-11-20T18:33:37.941Z,0.80
2022-11-20T18:36:13.464Z,0.90
2022-11-20T18:38:42.722Z,0.80
2022-11-20T18:41:31.174Z,0.90
2022-11-20T18:46:44.043Z,0.90
2022-11-20T18:49:12.028Z,0.90
2022-11-20T18:51:40.601Z,0.90
2022-11-20T18:54:07.894Z,-1.10
2022-11-20T18:56:35.343Z,0.70
2022-11-20T18:59:02.466Z,-1.30
2022-11-20T19:01:29.267Z,0.90
2022-11-20T19:03:56.491Z,0.90
2022-11-20T19:06:23.877Z,0.60
2022-11-20T19:13:50.572Z,0.70
2022-11-20T19:16:21.660Z,0.80
2022-11-20T19:18:49.442Z,0.40
2022-11-20T19:21:18.128Z,0.30
2022-11-20T19:23:48.455Z,0.30
2022-11-20T19:28:43.396Z,0.10
2022-11-20T19:31:12.637Z,0.10
2022-11-20T19:36:10.456Z,0.00
2022-11-20T19:48:26.230Z,0.10
2022-11-20T19:55:55.651Z,0.10
2022-11-20T20:00:49.217Z,0.00
2022-11-20T20:05:43.339Z,0.20
2022-11-20T20:08:12.169Z,0.10
2022-11-20T20:10:41.883Z,0.20
2022-11-20T20:15:39.901Z,0.30
2022-11-20T20:18:06.888Z,0.40
2022-11-20T20:23:06.680Z,1.40
2022-11-20T20:30:30.845Z,0.50
2022-11-20T20:32:57.682Z,0.40
2022-11-20T20:40:19.279Z,0.20
2022-11-20T20:50:11.377Z,0.10
2022-11-20T20:57:33.396Z,0.00
2022-11-20T21:22:09.134Z,-0.60
2022-11-20T21:24:36.514Z,-0.70
2022-11-20T21:27:05.034Z,0.40
2022-11-20T21:32:03.496Z,-0.80
2022-11-20T21:34:30.171Z,-0.70
2022-11-20T21:47:00.326Z,-0.80
2022-11-20T21:51:54.154Z,-0.50
2022-11-20T22:01:42.162Z,-1.30
2022-11-20T22:04:14.009Z,-1.00
2022-11-20T22:11:34.571Z,-1.30
2022-11-20T22:19:17.271Z,-1.60
2022-11-20T22:24:13.076Z,-1.40
2022-11-20T22:29:11.851Z,-1.50
2022-11-20T22:36:36.267Z,-1.50
2022-11-20T22:39:04.413Z,-1.50
2022-11-20T22:43:59.392Z,-1.60
2022-11-20T22:46:27.922Z,-1.70
2022-11-20T22:48:55.990Z,0.10
2022-11-20T22:51:23.828Z,0.40
2022-11-20T22:53:51.687Z,-1.80
2022-11-20T22:58:47.592Z,-1.90
2022-11-20T23:01:17.775Z,-2.00
2022-11-20T23:03:46.498Z,-1.90
2022-11-20T23:08:41.240Z,-1.90
2022-11-20T23:11:10.577Z,-1.90
2022-11-20T23:13:37.380Z,-1.80
2022-11-20T23:16:06.026Z,-1.90
2022-11-20T23:21:04.617Z,-1.80
2022-11-20T23:26:00.639Z,-1.70
2022-11-20T23:28:27.895Z,-1.70
2022-11-20T23:35:49.003Z,-1.00
2022-11-20T23:40:46.577Z,-1.40
2022-11-20T23:45:44.923Z,-1.40
